Weather at Khrabrovo Airport

Public forecast

Using degrees Celsius for public forecast. Weather courtesy of forecast.io.

Current aviation weather report (METAR) for Khrabrovo Airport

Retrieved 2021/06/16 23:00 UTC (18 minutes ago):

UMKK 162300Z 14002MPS CAVOK 09/08 Q1021 R24/95D NOSIG RMK QFE765/1020

Aviation forecast (TAF) for Khrabrovo Airport

Retrieved 2021/06/16 21:21 UTC (2 hours ago):

TAF UMKK 161955Z 1621/1721 VRB01MPS CAVOK BECMG 1700/1702 14003MPS